sensor_id;sensor_type;location;lat;lon;timestamp;P1;durP1;ratioP1;P2;durP2;ratioP2
59308;SDS011;48433;53.016;-2.260;2022-10-31T00:01:12;26.08;;;4.28;;
59308;SDS011;48433;53.016;-2.260;2022-10-31T00:03:40;19.23;;;3.28;;
59308;SDS011;48433;53.016;-2.260;2022-10-31T00:06:08;13.32;;;3.75;;
59308;SDS011;48433;53.016;-2.260;2022-10-31T00:08:35;24.40;;;5.20;;
59308;SDS011;48433;53.016;-2.260;2022-10-31T00:11:03;19.48;;;3.58;;
59308;SDS011;48433;53.016;-2.260;2022-10-31T00:13:31;23.80;;;4.28;;
59308;SDS011;48433;53.016;-2.260;2022-10-31T00:15:59;27.02;;;4.13;;
59308;SDS011;48433;53.016;-2.260;2022-10-31T00:18:27;29.55;;;5.53;;
59308;SDS011;48433;53.016;-2.260;2022-10-31T00:21:01;17.17;;;4.15;;
59308;SDS011;48433;53.016;-2.260;2022-10-31T00:23:30;19.05;;;3.22;;
59308;SDS011;48433;53.016;-2.260;2022-10-31T00:26:01;23.58;;;3.95;;
59308;SDS011;48433;53.016;-2.260;2022-10-31T00:28:30;22.45;;;5.03;;
59308;SDS011;48433;53.016;-2.260;2022-10-31T00:30:59;23.60;;;4.55;;
59308;SDS011;48433;53.016;-2.260;2022-10-31T00:33:28;17.52;;;4.18;;
59308;SDS011;48433;53.016;-2.260;2022-10-31T00:35:56;20.00;;;4.75;;
59308;SDS011;48433;53.016;-2.260;2022-10-31T00:38:23;19.08;;;3.80;;
59308;SDS011;48433;53.016;-2.260;2022-10-31T00:40:52;22.40;;;4.38;;
59308;SDS011;48433;53.016;-2.260;2022-10-31T00:43:20;20.42;;;3.70;;
59308;SDS011;48433;53.016;-2.260;2022-10-31T00:45:47;25.42;;;4.63;;
59308;SDS011;48433;53.016;-2.260;2022-10-31T00:48:15;27.10;;;4.38;;
59308;SDS011;48433;53.016;-2.260;2022-10-31T00:50:43;19.85;;;3.75;;
59308;SDS011;48433;53.016;-2.260;2022-10-31T00:53:11;28.25;;;3.97;;
59308;SDS011;48433;53.016;-2.260;2022-10-31T00:55:39;19.00;;;4.13;;
59308;SDS011;48433;53.016;-2.260;2022-10-31T00:58:06;23.58;;;4.00;;
59308;SDS011;48433;53.016;-2.260;2022-10-31T01:00:35;23.27;;;4.03;;
59308;SDS011;48433;53.016;-2.260;2022-10-31T01:03:02;18.25;;;3.60;;
59308;SDS011;48433;53.016;-2.260;2022-10-31T01:05:30;24.63;;;4.18;;
59308;SDS011;48433;53.016;-2.260;2022-10-31T01:07:58;21.90;;;3.75;;
59308;SDS011;48433;53.016;-2.260;2022-10-31T01:10:26;19.42;;;4.95;;
59308;SDS011;48433;53.016;-2.260;2022-10-31T01:12:54;20.88;;;3.75;;
59308;SDS011;48433;53.016;-2.260;2022-10-31T01:15:23;29.48;;;4.65;;
59308;SDS011;48433;53.016;-2.260;2022-10-31T01:17:51;26.27;;;4.75;;
59308;SDS011;48433;53.016;-2.260;2022-10-31T01:20:19;19.70;;;3.45;;
59308;SDS011;48433;53.016;-2.260;2022-10-31T01:22:47;21.20;;;5.13;;
59308;SDS011;48433;53.016;-2.260;2022-10-31T01:25:15;25.38;;;4.30;;
59308;SDS011;48433;53.016;-2.260;2022-10-31T01:27:43;23.70;;;4.28;;
59308;SDS011;48433;53.016;-2.260;2022-10-31T01:30:11;21.15;;;4.13;;
59308;SDS011;48433;53.016;-2.260;2022-10-31T01:32:39;22.65;;;4.15;;
59308;SDS011;48433;53.016;-2.260;2022-10-31T01:35:08;28.45;;;5.45;;
59308;SDS011;48433;53.016;-2.260;2022-10-31T01:37:35;18.70;;;3.50;;
59308;SDS011;48433;53.016;-2.260;2022-10-31T01:40:03;24.38;;;4.57;;
59308;SDS011;48433;53.016;-2.260;2022-10-31T01:42:31;25.08;;;4.60;;
59308;SDS011;48433;53.016;-2.260;2022-10-31T01:45:00;26.55;;;4.60;;
59308;SDS011;48433;53.016;-2.260;2022-10-31T01:47:37;30.90;;;6.60;;
59308;SDS011;48433;53.016;-2.260;2022-10-31T01:50:12;21.93;;;4.67;;
59308;SDS011;48433;53.016;-2.260;2022-10-31T01:52:53;28.88;;;5.88;;
59308;SDS011;48433;53.016;-2.260;2022-10-31T01:55:30;26.08;;;4.25;;
59308;SDS011;48433;53.016;-2.260;2022-10-31T01:58:04;21.52;;;3.88;;
59308;SDS011;48433;53.016;-2.260;2022-10-31T02:00:37;30.90;;;5.75;;
59308;SDS011;48433;53.016;-2.260;2022-10-31T02:03:06;24.77;;;5.60;;
59308;SDS011;48433;53.016;-2.260;2022-10-31T02:05:34;29.38;;;5.05;;
59308;SDS011;48433;53.016;-2.260;2022-10-31T02:08:07;24.13;;;4.70;;
59308;SDS011;48433;53.016;-2.260;2022-10-31T02:10:48;28.55;;;6.00;;
59308;SDS011;48433;53.016;-2.260;2022-10-31T02:13:16;26.13;;;4.28;;
59308;SDS011;48433;53.016;-2.260;2022-10-31T02:15:49;21.85;;;4.82;;
59308;SDS011;48433;53.016;-2.260;2022-10-31T02:18:23;29.48;;;5.25;;
59308;SDS011;48433;53.016;-2.260;2022-10-31T02:21:00;25.70;;;4.55;;
59308;SDS011;48433;53.016;-2.260;2022-10-31T02:23:45;30.05;;;4.80;;
59308;SDS011;48433;53.016;-2.260;2022-10-31T02:40:56;31.58;;;6.10;;
59308;SDS011;48433;53.016;-2.260;2022-10-31T02:49:10;30.65;;;5.80;;
59308;SDS011;48433;53.016;-2.260;2022-10-31T02:51:51;24.25;;;4.07;;
59308;SDS011;48433;53.016;-2.260;2022-10-31T02:54:21;27.60;;;5.55;;
59308;SDS011;48433;53.016;-2.260;2022-10-31T02:56:54;27.25;;;5.07;;
59308;SDS011;48433;53.016;-2.260;2022-10-31T02:59:27;30.55;;;5.13;;
59308;SDS011;48433;53.016;-2.260;2022-10-31T03:12:58;20.85;;;4.93;;
59308;SDS011;48433;53.016;-2.260;2022-10-31T03:15:40;31.77;;;5.57;;
59308;SDS011;48433;53.016;-2.260;2022-10-31T03:18:31;27.02;;;6.38;;
59308;SDS011;48433;53.016;-2.260;2022-10-31T03:21:03;32.17;;;5.82;;
59308;SDS011;48433;53.016;-2.260;2022-10-31T03:23:37;26.42;;;5.82;;
59308;SDS011;48433;53.016;-2.260;2022-10-31T03:26:07;35.75;;;6.07;;
59308;SDS011;48433;53.016;-2.260;2022-10-31T03:28:38;34.90;;;5.15;;
59308;SDS011;48433;53.016;-2.260;2022-10-31T03:31:21;30.08;;;5.50;;
59308;SDS011;48433;53.016;-2.260;2022-10-31T03:33:55;26.67;;;5.00;;
59308;SDS011;48433;53.016;-2.260;2022-10-31T03:36:32;25.08;;;6.38;;
59308;SDS011;48433;53.016;-2.260;2022-10-31T03:39:02;20.48;;;4.30;;
59308;SDS011;48433;53.016;-2.260;2022-10-31T03:41:34;24.08;;;5.35;;
59308;SDS011;48433;53.016;-2.260;2022-10-31T03:44:13;30.45;;;5.00;;
59308;SDS011;48433;53.016;-2.260;2022-10-31T03:46:47;29.58;;;5.50;;
59308;SDS011;48433;53.016;-2.260;2022-10-31T03:49:15;24.33;;;4.85;;
59308;SDS011;48433;53.016;-2.260;2022-10-31T03:52:03;33.40;;;5.65;;
59308;SDS011;48433;53.016;-2.260;2022-10-31T03:54:44;26.45;;;4.65;;
59308;SDS011;48433;53.016;-2.260;2022-10-31T03:59:44;26.98;;;4.50;;
59308;SDS011;48433;53.016;-2.260;2022-10-31T04:02:17;24.65;;;5.93;;
59308;SDS011;48433;53.016;-2.260;2022-10-31T04:04:45;28.90;;;5.15;;
59308;SDS011;48433;53.016;-2.260;2022-10-31T04:07:14;32.20;;;5.97;;
59308;SDS011;48433;53.016;-2.260;2022-10-31T04:09:44;32.92;;;5.65;;
59308;SDS011;48433;53.016;-2.260;2022-10-31T04:12:15;24.88;;;5.25;;
59308;SDS011;48433;53.016;-2.260;2022-10-31T04:15:03;25.13;;;4.78;;
59308;SDS011;48433;53.016;-2.260;2022-10-31T04:17:35;32.83;;;5.70;;
59308;SDS011;48433;53.016;-2.260;2022-10-31T04:20:06;26.33;;;5.38;;
59308;SDS011;48433;53.016;-2.260;2022-10-31T04:22:34;31.05;;;5.03;;
59308;SDS011;48433;53.016;-2.260;2022-10-31T04:25:01;29.80;;;5.28;;
59308;SDS011;48433;53.016;-2.260;2022-10-31T04:27:29;27.17;;;4.85;;
59308;SDS011;48433;53.016;-2.260;2022-10-31T04:29:57;23.77;;;5.25;;
59308;SDS011;48433;53.016;-2.260;2022-10-31T04:32:27;27.27;;;4.60;;
59308;SDS011;48433;53.016;-2.260;2022-10-31T04:34:55;26.02;;;5.18;;
59308;SDS011;48433;53.016;-2.260;2022-10-31T04:37:23;25.38;;;4.63;;
59308;SDS011;48433;53.016;-2.260;2022-10-31T04:39:50;20.92;;;4.03;;
59308;SDS011;48433;53.016;-2.260;2022-10-31T04:42:37;26.02;;;4.45;;
59308;SDS011;48433;53.016;-2.260;2022-10-31T04:45:06;17.85;;;3.65;;
59308;SDS011;48433;53.016;-2.260;2022-10-31T04:47:35;22.33;;;4.20;;
59308;SDS011;48433;53.016;-2.260;2022-10-31T04:50:03;26.95;;;4.45;;
59308;SDS011;48433;53.016;-2.260;2022-10-31T04:52:38;16.83;;;3.85;;
59308;SDS011;48433;53.016;-2.260;2022-10-31T04:55:11;30.17;;;5.53;;
59308;SDS011;48433;53.016;-2.260;2022-10-31T04:57:46;25.17;;;4.93;;
59308;SDS011;48433;53.016;-2.260;2022-10-31T05:00:16;23.23;;;3.75;;
59308;SDS011;48433;53.016;-2.260;2022-10-31T05:02:49;22.58;;;4.07;;
59308;SDS011;48433;53.016;-2.260;2022-10-31T05:05:19;27.77;;;4.50;;
59308;SDS011;48433;53.016;-2.260;2022-10-31T05:07:50;25.77;;;3.25;;
59308;SDS011;48433;53.016;-2.260;2022-10-31T05:10:21;23.38;;;3.92;;
59308;SDS011;48433;53.016;-2.260;2022-10-31T05:12:51;28.35;;;5.43;;
59308;SDS011;48433;53.016;-2.260;2022-10-31T05:15:51;23.35;;;4.55;;
59308;SDS011;48433;53.016;-2.260;2022-10-31T05:18:37;18.20;;;3.90;;
59308;SDS011;48433;53.016;-2.260;2022-10-31T05:21:43;27.02;;;4.03;;
59308;SDS011;48433;53.016;-2.260;2022-10-31T05:24:11;30.77;;;5.32;;
59308;SDS011;48433;53.016;-2.260;2022-10-31T05:26:44;26.05;;;4.32;;
59308;SDS011;48433;53.016;-2.260;2022-10-31T05:29:13;19.45;;;3.30;;
59308;SDS011;48433;53.016;-2.260;2022-10-31T05:31:40;21.42;;;4.25;;
59308;SDS011;48433;53.016;-2.260;2022-10-31T05:34:19;25.23;;;4.45;;
59308;SDS011;48433;53.016;-2.260;2022-10-31T05:37:22;17.17;;;3.45;;
59308;SDS011;48433;53.016;-2.260;2022-10-31T05:39:50;26.30;;;3.83;;
59308;SDS011;48433;53.016;-2.260;2022-10-31T05:42:18;19.02;;;4.35;;
59308;SDS011;48433;53.016;-2.260;2022-10-31T05:44:47;23.38;;;4.97;;
59308;SDS011;48433;53.016;-2.260;2022-10-31T05:50:33;27.88;;;4.20;;
59308;SDS011;48433;53.016;-2.260;2022-10-31T05:53:09;18.35;;;3.50;;
59308;SDS011;48433;53.016;-2.260;2022-10-31T05:55:39;24.95;;;4.40;;
59308;SDS011;48433;53.016;-2.260;2022-10-31T05:58:28;14.48;;;3.80;;
59308;SDS011;48433;53.016;-2.260;2022-10-31T06:01:03;16.67;;;3.05;;
59308;SDS011;48433;53.016;-2.260;2022-10-31T06:03:32;16.77;;;3.67;;
59308;SDS011;48433;53.016;-2.260;2022-10-31T06:06:02;15.65;;;3.22;;
59308;SDS011;48433;53.016;-2.260;2022-10-31T06:08:40;21.02;;;3.05;;
59308;SDS011;48433;53.016;-2.260;2022-10-31T06:11:13;27.92;;;4.03;;
59308;SDS011;48433;53.016;-2.260;2022-10-31T06:14:00;22.35;;;3.70;;
59308;SDS011;48433;53.016;-2.260;2022-10-31T06:16:44;22.92;;;4.18;;
59308;SDS011;48433;53.016;-2.260;2022-10-31T06:19:30;18.30;;;4.47;;
59308;SDS011;48433;53.016;-2.260;2022-10-31T06:21:58;20.75;;;3.80;;
59308;SDS011;48433;53.016;-2.260;2022-10-31T06:24:27;16.35;;;3.72;;
59308;SDS011;48433;53.016;-2.260;2022-10-31T06:27:02;19.77;;;3.33;;
59308;SDS011;48433;53.016;-2.260;2022-10-31T06:29:31;21.35;;;3.38;;
59308;SDS011;48433;53.016;-2.260;2022-10-31T06:32:21;24.63;;;4.32;;
59308;SDS011;48433;53.016;-2.260;2022-10-31T06:34:50;16.25;;;3.78;;
59308;SDS011;48433;53.016;-2.260;2022-10-31T06:37:18;21.45;;;3.85;;
59308;SDS011;48433;53.016;-2.260;2022-10-31T06:39:48;26.08;;;4.30;;
59308;SDS011;48433;53.016;-2.260;2022-10-31T06:42:16;21.85;;;3.47;;
59308;SDS011;48433;53.016;-2.260;2022-10-31T06:44:44;17.73;;;3.75;;
59308;SDS011;48433;53.016;-2.260;2022-10-31T06:47:31;26.02;;;3.97;;
59308;SDS011;48433;53.016;-2.260;2022-10-31T06:50:16;20.65;;;3.47;;
59308;SDS011;48433;53.016;-2.260;2022-10-31T06:52:50;22.90;;;4.18;;
59308;SDS011;48433;53.016;-2.260;2022-10-31T06:55:21;19.75;;;3.55;;
59308;SDS011;48433;53.016;-2.260;2022-10-31T06:57:55;25.70;;;4.15;;
59308;SDS011;48433;53.016;-2.260;2022-10-31T07:00:30;14.52;;;3.00;;
59308;SDS011;48433;53.016;-2.260;2022-10-31T07:03:05;27.23;;;4.85;;
59308;SDS011;48433;53.016;-2.260;2022-10-31T07:05:36;23.15;;;4.10;;
59308;SDS011;48433;53.016;-2.260;2022-10-31T07:08:05;21.75;;;3.40;;
59308;SDS011;48433;53.016;-2.260;2022-10-31T07:13:11;19.77;;;3.90;;
59308;SDS011;48433;53.016;-2.260;2022-10-31T07:15:43;15.10;;;4.50;;
59308;SDS011;48433;53.016;-2.260;2022-10-31T07:18:12;16.08;;;4.53;;
59308;SDS011;48433;53.016;-2.260;2022-10-31T07:20:40;20.23;;;3.63;;
59308;SDS011;48433;53.016;-2.260;2022-10-31T07:23:08;16.00;;;3.67;;
59308;SDS011;48433;53.016;-2.260;2022-10-31T07:25:41;24.05;;;4.13;;
59308;SDS011;48433;53.016;-2.260;2022-10-31T07:28:17;18.30;;;3.97;;
59308;SDS011;48433;53.016;-2.260;2022-10-31T07:30:50;19.17;;;3.25;;
59308;SDS011;48433;53.016;-2.260;2022-10-31T07:33:20;18.10;;;2.95;;
59308;SDS011;48433;53.016;-2.260;2022-10-31T07:36:08;14.07;;;3.55;;
59308;SDS011;48433;53.016;-2.260;2022-10-31T07:38:40;18.90;;;3.00;;
59308;SDS011;48433;53.016;-2.260;2022-10-31T07:41:08;19.42;;;4.13;;
59308;SDS011;48433;53.016;-2.260;2022-10-31T07:43:41;24.63;;;3.88;;
59308;SDS011;48433;53.016;-2.260;2022-10-31T07:46:17;24.25;;;4.32;;
59308;SDS011;48433;53.016;-2.260;2022-10-31T07:49:04;20.65;;;3.30;;
59308;SDS011;48433;53.016;-2.260;2022-10-31T07:51:50;20.55;;;3.58;;
59308;SDS011;48433;53.016;-2.260;2022-10-31T07:54:33;19.52;;;3.50;;
59308;SDS011;48433;53.016;-2.260;2022-10-31T07:57:01;18.05;;;3.90;;
59308;SDS011;48433;53.016;-2.260;2022-10-31T07:59:29;18.52;;;3.42;;
59308;SDS011;48433;53.016;-2.260;2022-10-31T08:01:57;16.30;;;3.63;;
59308;SDS011;48433;53.016;-2.260;2022-10-31T08:04:30;14.75;;;3.28;;
59308;SDS011;48433;53.016;-2.260;2022-10-31T08:07:16;18.65;;;3.67;;
59308;SDS011;48433;53.016;-2.260;2022-10-31T08:09:51;19.00;;;2.88;;
59308;SDS011;48433;53.016;-2.260;2022-10-31T08:12:23;13.50;;;2.95;;
59308;SDS011;48433;53.016;-2.260;2022-10-31T08:14:52;18.08;;;4.05;;
59308;SDS011;48433;53.016;-2.260;2022-10-31T08:17:20;16.17;;;3.63;;
59308;SDS011;48433;53.016;-2.260;2022-10-31T08:19:56;15.88;;;3.22;;
59308;SDS011;48433;53.016;-2.260;2022-10-31T08:22:30;12.55;;;2.65;;
59308;SDS011;48433;53.016;-2.260;2022-10-31T08:24:59;15.23;;;2.80;;
59308;SDS011;48433;53.016;-2.260;2022-10-31T08:27:28;16.85;;;2.72;;
59308;SDS011;48433;53.016;-2.260;2022-10-31T08:29:59;22.55;;;3.35;;
59308;SDS011;48433;53.016;-2.260;2022-10-31T08:32:27;11.68;;;2.78;;
59308;SDS011;48433;53.016;-2.260;2022-10-31T08:34:54;14.18;;;2.40;;
59308;SDS011;48433;53.016;-2.260;2022-10-31T08:37:54;13.75;;;2.60;;
59308;SDS011;48433;53.016;-2.260;2022-10-31T08:40:26;12.60;;;2.47;;
59308;SDS011;48433;53.016;-2.260;2022-10-31T08:42:57;18.43;;;2.63;;
59308;SDS011;48433;53.016;-2.260;2022-10-31T08:45:30;19.50;;;3.08;;
59308;SDS011;48433;53.016;-2.260;2022-10-31T08:47:59;14.95;;;2.30;;
59308;SDS011;48433;53.016;-2.260;2022-10-31T08:50:30;25.10;;;3.50;;
59308;SDS011;48433;53.016;-2.260;2022-10-31T08:53:03;10.45;;;2.17;;
59308;SDS011;48433;53.016;-2.260;2022-10-31T08:55:34;13.30;;;2.40;;
59308;SDS011;48433;53.016;-2.260;2022-10-31T08:58:07;21.13;;;3.42;;
59308;SDS011;48433;53.016;-2.260;2022-10-31T09:00:44;13.60;;;2.55;;
59308;SDS011;48433;53.016;-2.260;2022-10-31T09:03:16;14.77;;;2.75;;
59308;SDS011;48433;53.016;-2.260;2022-10-31T09:05:45;16.15;;;3.22;;
59308;SDS011;48433;53.016;-2.260;2022-10-31T09:08:13;18.60;;;3.00;;
59308;SDS011;48433;53.016;-2.260;2022-10-31T09:10:46;10.18;;;2.47;;
59308;SDS011;48433;53.016;-2.260;2022-10-31T09:13:19;19.70;;;2.58;;
59308;SDS011;48433;53.016;-2.260;2022-10-31T09:16:10;19.05;;;3.05;;
59308;SDS011;48433;53.016;-2.260;2022-10-31T09:18:38;12.93;;;2.00;;
59308;SDS011;48433;53.016;-2.260;2022-10-31T09:21:07;14.90;;;3.47;;
59308;SDS011;48433;53.016;-2.260;2022-10-31T09:23:34;17.27;;;3.30;;
59308;SDS011;48433;53.016;-2.260;2022-10-31T09:26:03;12.15;;;2.78;;
59308;SDS011;48433;53.016;-2.260;2022-10-31T09:28:45;14.63;;;3.38;;
59308;SDS011;48433;53.016;-2.260;2022-10-31T09:31:15;16.92;;;2.83;;
59308;SDS011;48433;53.016;-2.260;2022-10-31T09:33:53;17.63;;;3.53;;
59308;SDS011;48433;53.016;-2.260;2022-10-31T09:36:50;18.15;;;2.80;;
59308;SDS011;48433;53.016;-2.260;2022-10-31T09:39:23;9.30;;;1.90;;
59308;SDS011;48433;53.016;-2.260;2022-10-31T09:54:12;15.15;;;2.80;;
59308;SDS011;48433;53.016;-2.260;2022-10-31T09:56:45;12.70;;;2.50;;
59308;SDS011;48433;53.016;-2.260;2022-10-31T09:59:34;13.25;;;3.00;;
59308;SDS011;48433;53.016;-2.260;2022-10-31T10:02:02;14.32;;;2.70;;
59308;SDS011;48433;53.016;-2.260;2022-10-31T10:04:44;15.02;;;3.00;;
59308;SDS011;48433;53.016;-2.260;2022-10-31T10:07:29;18.10;;;3.60;;
59308;SDS011;48433;53.016;-2.260;2022-10-31T10:16:42;15.85;;;2.35;;
59308;SDS011;48433;53.016;-2.260;2022-10-31T10:19:22;14.65;;;2.63;;
59308;SDS011;48433;53.016;-2.260;2022-10-31T10:22:14;11.77;;;2.78;;
59308;SDS011;48433;53.016;-2.260;2022-10-31T10:36:00;13.13;;;2.50;;
59308;SDS011;48433;53.016;-2.260;2022-10-31T10:38:35;19.88;;;3.80;;
59308;SDS011;48433;53.016;-2.260;2022-10-31T10:41:16;14.35;;;3.42;;
59308;SDS011;48433;53.016;-2.260;2022-10-31T10:43:48;16.00;;;2.45;;
59308;SDS011;48433;53.016;-2.260;2022-10-31T10:52:39;15.88;;;2.10;;
59308;SDS011;48433;53.016;-2.260;2022-10-31T10:58:06;13.43;;;2.53;;
59308;SDS011;48433;53.016;-2.260;2022-10-31T11:00:39;12.55;;;1.90;;
59308;SDS011;48433;53.016;-2.260;2022-10-31T11:03:09;12.55;;;2.47;;
59308;SDS011;48433;53.016;-2.260;2022-10-31T11:05:39;12.15;;;2.42;;
59308;SDS011;48433;53.016;-2.260;2022-10-31T11:08:08;16.05;;;3.40;;
59308;SDS011;48433;53.016;-2.260;2022-10-31T11:10:36;16.02;;;3.00;;
59308;SDS011;48433;53.016;-2.260;2022-10-31T11:18:26;14.75;;;3.38;;
59308;SDS011;48433;53.016;-2.260;2022-10-31T11:20:57;12.05;;;3.22;;
59308;SDS011;48433;53.016;-2.260;2022-10-31T11:23:27;17.85;;;2.90;;
59308;SDS011;48433;53.016;-2.260;2022-10-31T11:25:56;13.13;;;3.10;;
59308;SDS011;48433;53.016;-2.260;2022-10-31T11:28:24;13.38;;;2.35;;
59308;SDS011;48433;53.016;-2.260;2022-10-31T11:33:24;11.10;;;1.75;;
59308;SDS011;48433;53.016;-2.260;2022-10-31T11:35:53;11.85;;;3.42;;
59308;SDS011;48433;53.016;-2.260;2022-10-31T11:38:26;13.50;;;2.60;;
59308;SDS011;48433;53.016;-2.260;2022-10-31T11:41:04;11.25;;;2.35;;
59308;SDS011;48433;53.016;-2.260;2022-10-31T11:43:50;18.42;;;3.25;;
59308;SDS011;48433;53.016;-2.260;2022-10-31T11:46:21;13.85;;;2.60;;
59308;SDS011;48433;53.016;-2.260;2022-10-31T11:48:53;17.67;;;3.03;;
59308;SDS011;48433;53.016;-2.260;2022-10-31T11:51:28;12.90;;;2.92;;
59308;SDS011;48433;53.016;-2.260;2022-10-31T11:54:00;13.88;;;2.50;;
59308;SDS011;48433;53.016;-2.260;2022-10-31T11:56:39;15.23;;;2.65;;
59308;SDS011;48433;53.016;-2.260;2022-10-31T11:59:16;15.75;;;2.85;;
59308;SDS011;48433;53.016;-2.260;2022-10-31T12:01:49;16.73;;;3.72;;
59308;SDS011;48433;53.016;-2.260;2022-10-31T12:04:17;13.77;;;2.65;;
59308;SDS011;48433;53.016;-2.260;2022-10-31T12:06:46;23.55;;;3.55;;
59308;SDS011;48433;53.016;-2.260;2022-10-31T12:11:52;13.57;;;2.65;;
59308;SDS011;48433;53.016;-2.260;2022-10-31T12:14:43;12.43;;;2.60;;
59308;SDS011;48433;53.016;-2.260;2022-10-31T12:17:20;14.85;;;2.60;;
59308;SDS011;48433;53.016;-2.260;2022-10-31T12:20:00;12.23;;;2.58;;
59308;SDS011;48433;53.016;-2.260;2022-10-31T12:25:04;14.02;;;3.30;;
59308;SDS011;48433;53.016;-2.260;2022-10-31T12:36:21;14.07;;;2.63;;
59308;SDS011;48433;53.016;-2.260;2022-10-31T12:47:23;20.27;;;3.55;;
59308;SDS011;48433;53.016;-2.260;2022-10-31T12:58:09;14.00;;;3.15;;
59308;SDS011;48433;53.016;-2.260;2022-10-31T13:00:44;13.95;;;2.85;;
59308;SDS011;48433;53.016;-2.260;2022-10-31T13:03:20;17.08;;;3.45;;
59308;SDS011;48433;53.016;-2.260;2022-10-31T13:05:51;15.18;;;3.22;;
59308;SDS011;48433;53.016;-2.260;2022-10-31T13:08:38;26.02;;;3.47;;
59308;SDS011;48433;53.016;-2.260;2022-10-31T13:11:15;15.25;;;3.25;;
59308;SDS011;48433;53.016;-2.260;2022-10-31T13:13:54;13.95;;;2.72;;
59308;SDS011;48433;53.016;-2.260;2022-10-31T13:16:37;12.38;;;3.30;;
59308;SDS011;48433;53.016;-2.260;2022-10-31T13:22:02;14.80;;;3.78;;
59308;SDS011;48433;53.016;-2.260;2022-10-31T13:24:40;12.32;;;3.30;;
59308;SDS011;48433;53.016;-2.260;2022-10-31T13:27:17;17.83;;;3.97;;
59308;SDS011;48433;53.016;-2.260;2022-10-31T13:30:05;16.67;;;3.42;;
59308;SDS011;48433;53.016;-2.260;2022-10-31T13:41:06;16.38;;;3.75;;
59308;SDS011;48433;53.016;-2.260;2022-10-31T13:48:59;17.02;;;3.15;;
59308;SDS011;48433;53.016;-2.260;2022-10-31T13:51:31;18.77;;;3.90;;
59308;SDS011;48433;53.016;-2.260;2022-10-31T13:54:06;17.33;;;4.10;;
59308;SDS011;48433;53.016;-2.260;2022-10-31T13:56:48;13.23;;;3.50;;
59308;SDS011;48433;53.016;-2.260;2022-10-31T14:01:53;23.20;;;4.32;;
59308;SDS011;48433;53.016;-2.260;2022-10-31T14:04:24;17.95;;;3.35;;
59308;SDS011;48433;53.016;-2.260;2022-10-31T14:07:12;10.60;;;2.53;;
59308;SDS011;48433;53.016;-2.260;2022-10-31T14:09:55;13.77;;;2.90;;
59308;SDS011;48433;53.016;-2.260;2022-10-31T14:12:27;14.07;;;2.47;;
59308;SDS011;48433;53.016;-2.260;2022-10-31T14:15:03;18.20;;;3.10;;
59308;SDS011;48433;53.016;-2.260;2022-10-31T14:17:46;11.15;;;2.85;;
59308;SDS011;48433;53.016;-2.260;2022-10-31T14:22:46;11.85;;;2.70;;
59308;SDS011;48433;53.016;-2.260;2022-10-31T14:25:35;11.10;;;3.20;;
59308;SDS011;48433;53.016;-2.260;2022-10-31T14:30:55;14.57;;;3.13;;
59308;SDS011;48433;53.016;-2.260;2022-10-31T14:33:28;12.35;;;2.78;;
59308;SDS011;48433;53.016;-2.260;2022-10-31T14:36:00;16.95;;;4.45;;
59308;SDS011;48433;53.016;-2.260;2022-10-31T14:44:21;14.48;;;3.17;;
59308;SDS011;48433;53.016;-2.260;2022-10-31T14:47:13;10.68;;;2.50;;
59308;SDS011;48433;53.016;-2.260;2022-10-31T14:52:51;11.10;;;2.85;;
59308;SDS011;48433;53.016;-2.260;2022-10-31T14:55:21;14.95;;;3.10;;
59308;SDS011;48433;53.016;-2.260;2022-10-31T14:57:52;11.02;;;3.00;;
59308;SDS011;48433;53.016;-2.260;2022-10-31T15:00:24;12.07;;;3.17;;
59308;SDS011;48433;53.016;-2.260;2022-10-31T15:05:45;15.65;;;3.15;;
59308;SDS011;48433;53.016;-2.260;2022-10-31T15:11:15;14.07;;;4.50;;
59308;SDS011;48433;53.016;-2.260;2022-10-31T15:13:51;13.05;;;3.05;;
59308;SDS011;48433;53.016;-2.260;2022-10-31T15:18:56;12.13;;;3.40;;
59308;SDS011;48433;53.016;-2.260;2022-10-31T15:21:27;20.02;;;4.38;;
59308;SDS011;48433;53.016;-2.260;2022-10-31T15:23:56;13.70;;;3.83;;
59308;SDS011;48433;53.016;-2.260;2022-10-31T15:26:35;11.20;;;2.67;;
59308;SDS011;48433;53.016;-2.260;2022-10-31T15:29:14;14.27;;;3.03;;
59308;SDS011;48433;53.016;-2.260;2022-10-31T15:31:52;12.52;;;3.28;;
59308;SDS011;48433;53.016;-2.260;2022-10-31T15:34:26;8.10;;;2.63;;
59308;SDS011;48433;53.016;-2.260;2022-10-31T15:37:02;11.05;;;3.10;;
59308;SDS011;48433;53.016;-2.260;2022-10-31T15:39:30;18.67;;;4.07;;
59308;SDS011;48433;53.016;-2.260;2022-10-31T15:41:58;16.48;;;2.92;;
59308;SDS011;48433;53.016;-2.260;2022-10-31T15:44:28;12.43;;;3.30;;
59308;SDS011;48433;53.016;-2.260;2022-10-31T15:47:05;12.93;;;2.72;;
59308;SDS011;48433;53.016;-2.260;2022-10-31T15:49:55;9.75;;;2.40;;
59308;SDS011;48433;53.016;-2.260;2022-10-31T15:55:05;13.00;;;3.42;;
59308;SDS011;48433;53.016;-2.260;2022-10-31T15:57:43;14.23;;;3.05;;
59308;SDS011;48433;53.016;-2.260;2022-10-31T16:08:23;11.50;;;3.80;;
59308;SDS011;48433;53.016;-2.260;2022-10-31T16:10:52;16.13;;;3.42;;
59308;SDS011;48433;53.016;-2.260;2022-10-31T16:13:23;15.05;;;3.42;;
59308;SDS011;48433;53.016;-2.260;2022-10-31T16:16:03;17.00;;;3.63;;
59308;SDS011;48433;53.016;-2.260;2022-10-31T16:18:52;15.77;;;3.42;;
59308;SDS011;48433;53.016;-2.260;2022-10-31T16:21:28;16.30;;;3.55;;
59308;SDS011;48433;53.016;-2.260;2022-10-31T16:24:13;10.80;;;3.38;;
59308;SDS011;48433;53.016;-2.260;2022-10-31T16:26:46;6.63;;;2.85;;
59308;SDS011;48433;53.016;-2.260;2022-10-31T16:29:25;14.82;;;3.38;;
59308;SDS011;48433;53.016;-2.260;2022-10-31T16:31:53;20.13;;;4.55;;
59308;SDS011;48433;53.016;-2.260;2022-10-31T16:34:21;12.85;;;2.38;;
59308;SDS011;48433;53.016;-2.260;2022-10-31T16:36:52;10.45;;;2.72;;
59308;SDS011;48433;53.016;-2.260;2022-10-31T16:39:20;13.05;;;3.35;;
59308;SDS011;48433;53.016;-2.260;2022-10-31T16:41:49;11.25;;;3.15;;
59308;SDS011;48433;53.016;-2.260;2022-10-31T16:44:19;12.05;;;3.03;;
59308;SDS011;48433;53.016;-2.260;2022-10-31T16:46:57;11.13;;;2.95;;
59308;SDS011;48433;53.016;-2.260;2022-10-31T16:49:35;14.82;;;3.72;;
59308;SDS011;48433;53.016;-2.260;2022-10-31T16:52:03;16.15;;;3.22;;
59308;SDS011;48433;53.016;-2.260;2022-10-31T16:54:31;12.30;;;3.17;;
59308;SDS011;48433;53.016;-2.260;2022-10-31T16:56:59;13.43;;;4.30;;
59308;SDS011;48433;53.016;-2.260;2022-10-31T16:59:27;15.50;;;3.97;;
59308;SDS011;48433;53.016;-2.260;2022-10-31T17:01:56;11.85;;;4.30;;
59308;SDS011;48433;53.016;-2.260;2022-10-31T17:04:25;12.82;;;4.10;;
59308;SDS011;48433;53.016;-2.260;2022-10-31T17:06:53;16.63;;;4.28;;
59308;SDS011;48433;53.016;-2.260;2022-10-31T17:09:21;17.20;;;4.82;;
59308;SDS011;48433;53.016;-2.260;2022-10-31T17:11:50;16.48;;;4.35;;
59308;SDS011;48433;53.016;-2.260;2022-10-31T17:14:19;13.13;;;3.60;;
59308;SDS011;48433;53.016;-2.260;2022-10-31T17:16:47;11.73;;;3.47;;
59308;SDS011;48433;53.016;-2.260;2022-10-31T17:19:16;15.82;;;3.97;;
59308;SDS011;48433;53.016;-2.260;2022-10-31T17:21:43;10.98;;;3.83;;
59308;SDS011;48433;53.016;-2.260;2022-10-31T17:24:12;9.77;;;3.28;;
59308;SDS011;48433;53.016;-2.260;2022-10-31T17:26:41;17.35;;;3.80;;
59308;SDS011;48433;53.016;-2.260;2022-10-31T17:29:09;13.73;;;3.47;;
59308;SDS011;48433;53.016;-2.260;2022-10-31T17:31:37;16.08;;;3.67;;
59308;SDS011;48433;53.016;-2.260;2022-10-31T17:34:05;12.50;;;3.88;;
59308;SDS011;48433;53.016;-2.260;2022-10-31T17:36:34;16.75;;;4.13;;
59308;SDS011;48433;53.016;-2.260;2022-10-31T17:39:03;14.10;;;3.85;;
59308;SDS011;48433;53.016;-2.260;2022-10-31T17:41:33;16.20;;;3.75;;
59308;SDS011;48433;53.016;-2.260;2022-10-31T17:44:01;13.45;;;3.60;;
59308;SDS011;48433;53.016;-2.260;2022-10-31T17:46:29;11.73;;;3.88;;